Time;durP1;ratioP1;P1;durP2;ratioP2;P2;SDS_P1;SDS_P2;PMS_P1;PMS_P2;Temp;Humidity;BMP_temperature;BMP_pressure;BME280_temperature;BME280_humidity;BME280_pressure;Samples;Min_cycle;Max_cycle;Signal;HPM_P1;HPM_P2
2022/10/13 00:00:40;;;;;;;;;;;;;;;20.49;51.36;95875.13;6126599;19;1619;-86
2022/10/13 00:02:46;;;;;;;;;;;;;;;20.51;51.21;95875.75;6126714;19;1524;-85
2022/10/13 00:04:49;;;;;;;;;;;;;;;20.50;51.28;95883.97;6124362;19;1583;-87
2022/10/13 00:06:52;;;;;;;;;;;;;;;20.50;51.36;95883.97;6117322;19;1846;-86
2022/10/13 00:08:56;;;;;;;;;;;;;;;20.48;51.26;95880.63;6114113;19;1582;-85
2022/10/13 00:11:00;;;;;;;;;;;;;;;20.47;51.44;95876.31;6125792;19;1401;-86
2022/10/13 00:13:03;;;;;;;;;;;;;;;20.46;51.24;95875.50;6125827;19;1429;-86
2022/10/13 00:15:08;;;;;;;;;;;;;;;20.46;51.38;95877.31;6122652;19;1496;-85
2022/10/13 00:17:11;;;;;;;;;;;;;;;20.44;51.74;95876.72;6124400;19;1522;-86
2022/10/13 00:19:17;;;;;;;;;;;;;;;20.45;51.52;95875.69;6107158;19;1521;-86
2022/10/13 00:21:22;;;;;;;;;;;;;;;20.45;51.56;95875.69;6125834;19;1527;-83
2022/10/13 00:23:25;;;;;;;;;;;;;;;20.46;52.17;95875.50;6122500;19;1469;-87
2022/10/13 00:25:29;;;;;;;;;;;;;;;20.47;52.05;95866.47;6124310;19;1418;-86
2022/10/13 00:27:32;;;;;;;;;;;;;;;20.50;51.99;95859.94;6124792;19;1830;-87
2022/10/13 00:29:36;;;;;;;;;;;;;;;20.49;52.20;95866.28;6118408;19;1396;-88
2022/10/13 00:31:39;;;;;;;;;;;;;;;20.49;51.90;95860.97;6115079;19;1529;-87
2022/10/13 00:33:42;;;;;;;;;;;;;;;20.47;52.25;95861.13;6124652;19;1480;-88
2022/10/13 00:35:49;;;;;;;;;;;;;;;20.47;52.17;95855.78;6129335;19;1376;-87
2022/10/13 00:37:53;;;;;;;;;;;;;;;20.48;52.28;95859.28;6128517;19;1441;-88
2022/10/13 00:39:56;;;;;;;;;;;;;;;20.46;51.82;95859.50;6125851;19;1433;-88
2022/10/13 00:42:00;;;;;;;;;;;;;;;20.45;52.21;95849.81;6107824;19;1512;-87
2022/10/13 00:44:04;;;;;;;;;;;;;;;20.46;52.16;95861.31;6127307;19;1504;-88
2022/10/13 00:46:07;;;;;;;;;;;;;;;20.44;52.12;95852.69;6125874;19;1555;-87
2022/10/13 00:48:11;;;;;;;;;;;;;;;20.45;52.12;95854.31;6125988;19;1857;-87
2022/10/13 00:50:16;;;;;;;;;;;;;;;20.44;51.69;95853.50;6125679;19;1447;-86
2022/10/13 00:52:23;;;;;;;;;;;;;;;20.45;52.07;95846.31;6126624;19;1433;-87
2022/10/13 00:54:28;;;;;;;;;;;;;;;20.43;51.86;95854.53;6107238;19;1377;-87
2022/10/13 00:56:32;;;;;;;;;;;;;;;20.44;51.84;95847.34;6123251;19;1551;-87
2022/10/13 00:58:36;;;;;;;;;;;;;;;20.45;51.89;95849.00;6125607;19;1492;-85
2022/10/13 01:00:40;;;;;;;;;;;;;;;20.47;51.90;95855.78;6122485;19;1506;-85
2022/10/13 01:02:44;;;;;;;;;;;;;;;20.47;52.07;95849.63;6123441;19;1450;-84
2022/10/13 01:04:48;;;;;;;;;;;;;;;20.46;52.24;95846.16;6099268;19;1482;-84
2022/10/13 01:06:52;;;;;;;;;;;;;;;20.44;51.93;95845.50;6122187;19;1871;-84
2022/10/13 01:08:58;;;;;;;;;;;;;;;20.45;51.96;95849.00;6125407;19;1273;-84
2022/10/13 01:11:09;;;;;;;;;;;;;;;20.44;51.72;95850.03;6124193;19;1440;-84
2022/10/13 01:13:15;;;;;;;;;;;;;;;20.43;51.65;95851.00;6125775;19;1462;-84
2022/10/13 01:15:24;;;;;;;;;;;;;;;20.43;52.01;95853.69;6119491;19;1440;-89
2022/10/13 01:17:33;;;;;;;;;;;;;;;20.41;51.67;95856.56;6113739;19;1306;-84
2022/10/13 01:19:54;;;;;;;;;;;;;;;20.43;51.82;95851.00;6123998;19;1393;-84
2022/10/13 01:22:03;;;;;;;;;;;;;;;20.41;51.97;95851.22;6126556;19;1485;-83
2022/10/13 01:24:36;;;;;;;;;;;;;;;20.40;51.95;95844.22;6123827;19;1433;-84
2022/10/13 01:27:00;;;;;;;;;;;;;;;20.40;51.59;95846.06;6125373;19;1425;-84
2022/10/13 01:29:12;;;;;;;;;;;;;;;20.41;51.85;95847.72;6115724;19;1441;-84
2022/10/13 01:31:22;;;;;;;;;;;;;;;20.40;51.39;95848.72;6122281;19;1445;-85
2022/10/13 01:33:31;;;;;;;;;;;;;;;20.40;51.74;95843.38;6124197;19;1488;-83
2022/10/13 01:35:49;;;;;;;;;;;;;;;20.41;51.84;95848.56;6125642;19;1441;-85
2022/10/13 01:37:56;;;;;;;;;;;;;;;20.41;51.72;95845.88;6124928;19;1495;-85
2022/10/13 01:40:05;;;;;;;;;;;;;;;20.44;51.52;95847.34;6104340;19;1536;-85
2022/10/13 01:42:13;;;;;;;;;;;;;;;20.43;51.74;95840.34;6124131;19;1619;-85
2022/10/13 01:44:19;;;;;;;;;;;;;;;20.44;51.48;95844.69;6124325;19;1457;-86
2022/10/13 01:46:26;;;;;;;;;;;;;;;20.43;51.83;95843.00;6123531;19;1523;-86
2022/10/13 01:48:30;;;;;;;;;;;;;;;20.48;51.69;95840.59;6122746;19;1861;-88
2022/10/13 01:50:34;;;;;;;;;;;;;;;20.53;51.48;95838.19;6109890;19;1533;-86
2022/10/13 01:52:39;;;;;;;;;;;;;;;20.54;51.17;95832.66;6128454;19;1543;-86
2022/10/13 01:54:44;;;;;;;;;;;;;;;20.56;51.35;95837.81;6126514;19;1420;-89
2022/10/13 01:56:53;;;;;;;;;;;;;;;20.51;51.44;95840.22;6125484;19;1524;-85
2022/10/13 01:58:58;;;;;;;;;;;;;;;20.54;51.00;95842.50;6124523;19;1490;-86
2022/10/13 02:01:07;;;;;;;;;;;;;;;20.53;50.73;95836.34;6117502;19;1473;-87
2022/10/13 02:03:17;;;;;;;;;;;;;;;20.50;51.05;95836.72;6111777;19;1499;-88
2022/10/13 02:05:25;;;;;;;;;;;;;;;20.50;50.75;95833.22;6125363;19;1405;-88
2022/10/13 02:07:32;;;;;;;;;;;;;;;20.48;51.09;95827.25;6122049;19;1861;-87
2022/10/13 02:09:41;;;;;;;;;;;;;;;20.47;51.04;95831.75;6124866;19;1541;-87
2022/10/13 02:11:48;;;;;;;;;;;;;;;20.47;51.20;95833.63;6125759;19;1523;-85
2022/10/13 02:13:55;;;;;;;;;;;;;;;20.46;51.20;95837.28;6103963;19;1512;-85
2022/10/13 02:16:00;;;;;;;;;;;;;;;20.46;51.08;95829.28;6123879;19;1636;-88
2022/10/13 02:18:05;;;;;;;;;;;;;;;20.45;51.05;95831.13;6122728;19;1473;-86
2022/10/13 02:20:12;;;;;;;;;;;;;;;20.46;51.16;95837.28;6124022;19;1416;-85
2022/10/13 02:22:16;;;;;;;;;;;;;;;20.44;51.18;95834.81;6123453;19;1382;-85
2022/10/13 02:24:20;;;;;;;;;;;;;;;20.45;51.28;95832.97;6114750;19;1372;-86
2022/10/13 02:26:23;;;;;;;;;;;;;;;20.45;50.97;95830.31;6117958;19;1484;-86
2022/10/13 02:28:27;;;;;;;;;;;;;;;20.44;51.09;95826.81;6123287;19;1854;-87
2022/10/13 02:30:32;;;;;;;;;;;;;;;20.45;50.99;95828.44;6123134;19;1515;-87
2022/10/13 02:32:35;;;;;;;;;;;;;;;20.46;51.12;95823.94;6124599;19;1229;-86
2022/10/13 02:34:38;;;;;;;;;;;;;;;20.45;51.14;95822.28;6126341;19;1557;-86
2022/10/13 02:36:44;;;;;;;;;;;;;;;20.45;51.00;95819.63;6104112;19;1522;-86
2022/10/13 02:38:48;;;;;;;;;;;;;;;20.43;50.82;95824.31;6121170;19;1490;-86
2022/10/13 02:40:53;;;;;;;;;;;;;;;20.42;50.93;95820.00;6123053;19;1418;-87
2022/10/13 02:42:57;;;;;;;;;;;;;;;20.41;51.29;95821.84;6126942;19;1525;-87
2022/10/13 02:45:00;;;;;;;;;;;;;;;20.42;51.06;95817.34;6126056;19;1598;-88
2022/10/13 02:47:04;;;;;;;;;;;;;;;20.42;51.48;95817.34;6116255;19;1237;-90
2022/10/13 02:49:07;;;;;;;;;;;;;;;20.45;51.33;95817.78;6111596;19;1849;-84
2022/10/13 02:51:10;;;;;;;;;;;;;;;20.44;50.79;95816.13;6121603;19;1516;-84
2022/10/13 02:53:16;;;;;;;;;;;;;;;20.44;51.33;95817.97;6121855;19;1464;-84
2022/10/13 02:55:20;;;;;;;;;;;;;;;20.50;50.92;95815.38;6122368;19;1524;-90
2022/10/13 02:57:23;;;;;;;;;;;;;;;20.52;51.07;95808.00;6123087;19;1394;-89
2022/10/13 02:59:27;;;;;;;;;;;;;;;20.53;50.68;95814.16;6104530;19;1402;-86
2022/10/13 03:01:30;;;;;;;;;;;;;;;20.54;50.75;95805.97;6120762;19;1519;-85
2022/10/13 03:03:33;;;;;;;;;;;;;;;20.53;51.05;95812.31;6120108;19;1497;-89
2022/10/13 03:05:37;;;;;;;;;;;;;;;20.52;50.88;95813.34;6123530;19;1392;-88
2022/10/13 03:07:40;;;;;;;;;;;;;;;20.52;51.09;95801.84;6124673;19;1849;-85
2022/10/13 03:09:46;;;;;;;;;;;;;;;19.32;44.85;95811.09;6110688;19;1437;-86
2022/10/13 03:11:50;;;;;;;;;;;;;;;18.72;44.01;95809.38;6111766;19;1426;-85
2022/10/13 03:13:53;;;;;;;;;;;;;;;18.52;43.79;95799.22;6120434;19;1433;-83
2022/10/13 03:15:57;;;;;;;;;;;;;;;18.47;43.35;95798.09;6121612;19;1100;-85
2022/10/13 03:18:00;;;;;;;;;;;;;;;18.29;43.12;95798.38;6121282;19;1440;-85
2022/10/13 03:20:03;;;;;;;;;;;;;;;18.16;42.65;95804.31;6122406;19;1489;-85
2022/10/13 03:22:07;;;;;;;;;;;;;;;18.09;42.66;95804.19;6102681;19;1456;-85
2022/10/13 03:24:10;;;;;;;;;;;;;;;18.02;42.10;95808.56;6121998;19;1528;-84
2022/10/13 03:26:17;;;;;;;;;;;;;;;17.93;42.33;95806.97;6123299;19;1589;-84
2022/10/13 03:28:20;;;;;;;;;;;;;;;17.89;42.09;95813.63;6125717;19;1845;-83
2022/10/13 03:30:24;;;;;;;;;;;;;;;17.83;42.31;95816.97;6125443;19;1200;-88
2022/10/13 03:32:27;;;;;;;;;;;;;;;18.14;42.18;95818.78;6129923;19;1246;-84
2022/10/13 03:34:31;;;;;;;;;;;;;;;18.59;42.86;95820.59;6110300;19;1510;-85
2022/10/13 03:36:35;;;;;;;;;;;;;;;18.91;42.73;95821.34;6130760;19;1470;-87
2022/10/13 03:38:38;;;;;;;;;;;;;;;19.14;43.17;95819.44;6127883;19;1027;-88
2022/10/13 03:40:41;;;;;;;;;;;;;;;19.28;43.13;95823.13;6123464;19;1474;-88
2022/10/13 03:42:47;;;;;;;;;;;;;;;19.37;43.74;95816.69;6127868;19;1515;-87
2022/10/13 03:44:51;;;;;;;;;;;;;;;19.44;44.07;95817.63;6111315;19;1536;-88
2022/10/13 03:46:54;;;;;;;;;;;;;;;19.53;44.20;95817.56;6127185;19;1512;-83
2022/10/13 03:49:02;;;;;;;;;;;;;;;19.58;44.42;95823.16;6131065;19;1860;-86
2022/10/13 03:51:07;;;;;;;;;;;;;;;19.62;44.47;95821.75;6124400;19;1439;-87
2022/10/13 03:53:11;;;;;;;;;;;;;;;19.67;44.48;95814.88;6125097;19;1559;-82
2022/10/13 03:55:14;;;;;;;;;;;;;;;19.74;44.62;95814.94;6128164;19;1429;-86
2022/10/13 03:57:18;;;;;;;;;;;;;;;19.76;44.49;95812.91;6106517;19;1513;-86
2022/10/13 03:59:24;;;;;;;;;;;;;;;19.77;44.57;95801.22;6129519;19;1183;-83
2022/10/13 04:01:28;;;;;;;;;;;;;;;19.80;44.47;95802.69;6124291;19;1445;-85
2022/10/13 04:03:32;;;;;;;;;;;;;;;19.80;44.99;95803.50;6127304;19;1325;-89
2022/10/13 04:05:36;;;;;;;;;;;;;;;19.87;44.80;95803.59;6127509;19;1429;-88
2022/10/13 04:07:39;;;;;;;;;;;;;;;19.89;44.83;95807.75;6112503;19;1568;-89
2022/10/13 04:09:42;;;;;;;;;;;;;;;19.92;44.99;95800.34;6125687;19;1845;-86
2022/10/13 04:11:46;;;;;;;;;;;;;;;19.95;45.43;95800.84;6128128;19;1222;-86
2022/10/13 04:13:49;;;;;;;;;;;;;;;19.93;45.38;95802.84;6129338;19;1509;-87
2022/10/13 04:15:55;;;;;;;;;;;;;;;19.91;45.20;95807.53;6125927;19;1860;-88
2022/10/13 04:17:58;;;;;;;;;;;;;;;19.89;45.11;95796.25;6124575;19;1581;-90
2022/10/13 04:20:02;;;;;;;;;;;;;;;19.89;45.42;95806.94;6107523;19;1460;-86
2022/10/13 04:22:05;;;;;;;;;;;;;;;19.88;45.62;95799.91;6122670;19;1434;-86
2022/10/13 04:24:09;;;;;;;;;;;;;;;19.87;45.61;95799.09;6122553;19;1395;-88
2022/10/13 04:26:16;;;;;;;;;;;;;;;19.86;45.29;95792.13;6124852;19;1523;-91
2022/10/13 04:28:20;;;;;;;;;;;;;;;19.88;45.40;95802.59;6127516;19;1843;-89
2022/10/13 04:30:23;;;;;;;;;;;;;;;19.87;45.55;95792.94;6116342;19;992;-92
2022/10/13 04:32:29;;;;;;;;;;;;;;;19.86;45.43;95792.13;6110084;19;1454;-86
2022/10/13 04:34:32;;;;;;;;;;;;;;;19.93;45.67;95791.38;6119900;19;1456;-84
2022/10/13 04:36:36;;;;;;;;;;;;;;;19.56;45.39;95790.53;6122868;19;1014;-88
2022/10/13 04:38:39;;;;;;;;;;;;;;;19.64;45.27;95793.91;6123060;19;997;-88
2022/10/13 04:40:43;;;;;;;;;;;;;;;19.78;46.42;95792.22;6122493;19;1109;-87
2022/10/13 04:42:46;;;;;;;;;;;;;;;19.86;46.16;95789.44;6102502;19;1061;-89
2022/10/13 04:44:49;;;;;;;;;;;;;;;19.92;46.47;95793.22;6121130;19;1460;-82
2022/10/13 04:46:53;;;;;;;;;;;;;;;19.52;45.22;95797.19;6119372;19;1402;-86
2022/10/13 04:48:59;;;;;;;;;;;;;;;19.12;46.01;95804.66;6125830;19;1849;-86
2022/10/13 04:51:03;;;;;;;;;;;;;;;18.92;45.95;95794.56;6126512;19;1096;-89
2022/10/13 04:53:06;;;;;;;;;;;;;;;18.84;46.00;95797.28;6113471;19;1483;-88
2022/10/13 04:55:10;;;;;;;;;;;;;;;18.86;45.48;95795.25;6115901;19;1449;-88
2022/10/13 04:57:13;;;;;;;;;;;;;;;18.83;45.41;95800.94;6126694;19;1398;-87
2022/10/13 04:59:17;;;;;;;;;;;;;;;18.77;45.47;95797.16;6124141;19;1404;-87
2022/10/13 05:01:21;;;;;;;;;;;;;;;18.70;45.68;95803.41;6124847;19;1185;-88
2022/10/13 05:03:24;;;;;;;;;;;;;;;18.71;45.29;95803.22;6122508;19;1464;-88
2022/10/13 05:05:30;;;;;;;;;;;;;;;18.70;44.98;95808.75;6108201;19;1049;-88
2022/10/13 05:07:34;;;;;;;;;;;;;;;18.71;45.25;95807.72;6123666;19;1456;-88
2022/10/13 05:09:37;;;;;;;;;;;;;;;18.62;45.24;95798.13;6123661;19;1849;-87
2022/10/13 05:11:41;;;;;;;;;;;;;;;18.57;45.08;95805.81;6123096;19;1427;-88
2022/10/13 05:13:44;;;;;;;;;;;;;;;18.48;45.08;95805.88;6123777;19;1096;-88
2022/10/13 05:15:48;;;;;;;;;;;;;;;18.43;44.94;95815.41;6115363;19;966;-86
2022/10/13 05:17:51;;;;;;;;;;;;;;;18.43;44.98;95810.91;6113891;19;1383;-87
2022/10/13 05:19:54;;;;;;;;;;;;;;;18.42;45.11;95814.59;6121248;19;1438;-86
2022/10/13 05:22:00;;;;;;;;;;;;;;;18.37;44.70;95818.78;6123156;19;1054;-87
2022/10/13 05:24:05;;;;;;;;;;;;;;;18.28;45.04;95823.34;6123696;19;1060;-89
2022/10/13 05:26:09;;;;;;;;;;;;;;;18.16;45.89;95819.44;6120382;19;1406;-80
2022/10/13 05:28:12;;;;;;;;;;;;;;;18.68;44.93;95824.06;6104179;19;1025;-88
2022/10/13 05:30:16;;;;;;;;;;;;;;;19.00;44.46;95830.91;6120640;19;1845;-88
2022/10/13 05:32:19;;;;;;;;;;;;;;;19.20;44.89;95836.53;6123447;19;1029;-89
2022/10/13 05:34:23;;;;;;;;;;;;;;;19.31;45.00;95841.41;6123847;19;1029;-89
2022/10/13 05:36:28;;;;;;;;;;;;;;;19.40;44.78;95826.97;6121963;19;1550;-90
2022/10/13 05:38:34;;;;;;;;;;;;;;;19.48;45.00;95836.72;6110628;19;1376;-89
2022/10/13 05:40:38;;;;;;;;;;;;;;;19.54;45.11;95840.53;6116344;19;1425;-89
2022/10/13 05:42:41;;;;;;;;;;;;;;;19.59;44.66;95849.63;6122596;19;1400;-89
2022/10/13 05:44:45;;;;;;;;;;;;;;;19.64;45.03;95847.22;6122662;19;1496;-90
2022/10/13 05:46:48;;;;;;;;;;;;;;;19.70;44.66;95850.16;6122288;19;1316;-87
2022/10/13 05:48:52;;;;;;;;;;;;;;;19.73;45.15;95861.28;6122030;19;1849;-82
2022/10/13 05:50:56;;;;;;;;;;;;;;;19.75;45.28;95861.09;6101693;19;981;-82
2022/10/13 05:52:59;;;;;;;;;;;;;;;19.74;45.32;95862.09;6121519;19;1486;-82
2022/10/13 05:55:07;;;;;;;;;;;;;;;19.72;45.18;95864.97;6122739;19;1021;-83
2022/10/13 05:57:16;;;;;;;;;;;;;;;19.73;45.12;95855.13;6121679;19;1189;-85
2022/10/13 05:59:21;;;;;;;;;;;;;;;19.79;44.80;95863.22;6121483;19;1191;-87
2022/10/13 06:01:25;;;;;;;;;;;;;;;19.81;45.18;95861.19;6105131;19;1465;-86
2022/10/13 06:03:29;;;;;;;;;;;;;;;19.84;44.97;95876.00;6121009;19;1281;-87
2022/10/13 06:05:33;;;;;;;;;;;;;;;19.84;44.89;95871.47;6121563;19;1467;-87
2022/10/13 06:07:37;;;;;;;;;;;;;;;19.86;44.95;95876.63;6120353;19;1508;-87
2022/10/13 06:09:41;;;;;;;;;;;;;;;19.88;44.96;95871.94;6121363;19;1860;-86
2022/10/13 06:11:47;;;;;;;;;;;;;;;19.91;45.07;95862.72;6120826;19;1394;-86
2022/10/13 06:13:50;;;;;;;;;;;;;;;19.93;45.22;95861.53;6100781;19;1390;-86
2022/10/13 06:15:54;;;;;;;;;;;;;;;19.94;45.63;95867.69;6121530;19;977;-88
2022/10/13 06:17:57;;;;;;;;;;;;;;;19.95;45.30;95870.19;6120499;19;1614;-89
2022/10/13 06:20:00;;;;;;;;;;;;;;;19.94;45.59;95868.50;6120704;19;1479;-88
2022/10/13 06:22:04;;;;;;;;;;;;;;;19.95;45.25;95859.50;6121798;19;1092;-89
2022/10/13 06:24:07;;;;;;;;;;;;;;;19.95;45.37;95864.84;6105521;19;981;-86
2022/10/13 06:26:11;;;;;;;;;;;;;;;19.98;45.30;95866.31;6121048;19;1100;-87
2022/10/13 06:28:17;;;;;;;;;;;;;;;19.99;45.40;95867.97;6121190;19;1163;-87
2022/10/13 06:30:21;;;;;;;;;;;;;;;20.00;45.46;95861.59;6120088;19;1834;-86
2022/10/13 06:32:24;;;;;;;;;;;;;;;20.01;45.84;95874.78;6121161;19;997;-87
2022/10/13 06:34:27;;;;;;;;;;;;;;;20.01;45.81;95860.59;6120644;19;1489;-87
2022/10/13 06:36:31;;;;;;;;;;;;;;;20.02;45.77;95862.25;6102734;19;1009;-88
2022/10/13 06:38:34;;;;;;;;;;;;;;;20.02;45.84;95864.91;6120062;19;1387;-88
2022/10/13 06:40:38;;;;;;;;;;;;;;;20.05;45.92;95867.22;6121533;19;1049;-86
2022/10/13 06:42:41;;;;;;;;;;;;;;;20.06;45.69;95866.19;6120945;19;1485;-89
2022/10/13 06:44:47;;;;;;;;;;;;;;;20.06;46.00;95855.50;6120924;19;1534;-88
2022/10/13 06:46:50;;;;;;;;;;;;;;;20.06;45.73;95855.50;6102625;19;1483;-83
2022/10/13 06:48:54;;;;;;;;;;;;;;;20.08;45.71;95856.97;6119741;19;1464;-86
2022/10/13 06:50:57;;;;;;;;;;;;;;;20.09;46.11;95856.00;6119694;19;1845;-86
2022/10/13 06:53:00;;;;;;;;;;;;;;;20.09;46.02;95849.81;6119269;19;1525;-86
2022/10/13 06:55:04;;;;;;;;;;;;;;;20.09;45.93;95850.66;6121371;19;1096;-88
2022/10/13 06:57:07;;;;;;;;;;;;;;;20.10;46.02;95852.28;6121419;19;1482;-88
2022/10/13 06:59:11;;;;;;;;;;;;;;;20.10;46.08;95852.28;6099832;19;1412;-88
2022/10/13 07:01:17;;;;;;;;;;;;;;;20.10;46.02;95856.81;6120746;19;1117;-87
2022/10/13 07:03:21;;;;;;;;;;;;;;;20.13;45.86;95851.09;6117199;19;1416;-88
2022/10/13 07:05:24;;;;;;;;;;;;;;;20.11;46.35;95847.78;6121941;19;1041;-88
2022/10/13 07:07:27;;;;;;;;;;;;;;;20.13;46.29;95851.09;6119817;19;1383;-88
2022/10/13 07:09:31;;;;;;;;;;;;;;;20.12;46.23;95852.13;6105326;19;1837;-87
2022/10/13 07:11:34;;;;;;;;;;;;;;;20.13;46.26;95839.59;6120825;19;1084;-87
2022/10/13 07:13:38;;;;;;;;;;;;;;;20.13;46.46;95847.59;6120369;19;1084;-88
2022/10/13 07:15:41;;;;;;;;;;;;;;;20.12;46.18;95849.44;6121184;19;1017;-86
2022/10/13 07:17:47;;;;;;;;;;;;;;;20.12;46.32;95838.78;6120990;19;1150;-87
2022/10/13 07:19:51;;;;;;;;;;;;;;;20.12;46.26;95836.09;6120640;19;1505;-88
2022/10/13 07:21:55;;;;;;;;;;;;;;;20.13;46.51;95836.94;6100484;19;1476;-86
2022/10/13 07:23:58;;;;;;;;;;;;;;;20.14;46.26;95838.56;6120563;19;859;-88
2022/10/13 07:26:01;;;;;;;;;;;;;;;20.13;46.76;95845.75;6120195;19;1497;-87
2022/10/13 07:28:05;;;;;;;;;;;;;;;20.13;46.67;95843.09;6119446;19;1391;-88
2022/10/13 07:30:09;;;;;;;;;;;;;;;20.14;46.36;95846.56;6119870;19;1826;-87
2022/10/13 07:32:12;;;;;;;;;;;;;;;20.14;46.84;95849.25;6104828;19;1385;-85
2022/10/13 07:34:18;;;;;;;;;;;;;;;20.15;46.56;95846.41;6117651;19;1374;-86
2022/10/13 07:36:21;;;;;;;;;;;;;;;20.15;46.69;95849.06;6120770;19;1056;-85
2022/10/13 07:38:25;;;;;;;;;;;;;;;20.16;46.55;95850.72;6120569;19;1502;-87
2022/10/13 07:40:28;;;;;;;;;;;;;;;20.16;46.84;95848.03;6120802;19;1027;-89
2022/10/13 07:42:31;;;;;;;;;;;;;;;20.18;46.46;95855.88;6116860;19;1379;-81
2022/10/13 07:44:35;;;;;;;;;;;;;;;20.17;46.18;95840.88;6098216;19;1380;-82
2022/10/13 07:46:38;;;;;;;;;;;;;;;20.15;45.74;95845.59;6119013;19;918;-81
2022/10/13 07:48:42;;;;;;;;;;;;;;;20.15;45.47;95830.41;6117942;19;1459;-82
2022/10/13 07:50:48;;;;;;;;;;;;;;;20.14;45.21;95827.91;6116383;19;1837;-82
2022/10/13 07:52:51;;;;;;;;;;;;;;;20.16;45.00;95841.88;6117130;19;1444;-82
2022/10/13 07:54:55;;;;;;;;;;;;;;;20.15;45.04;95833.06;6103362;19;1457;-82
2022/10/13 07:56:58;;;;;;;;;;;;;;;20.15;45.11;95835.72;6118247;19;1005;-82
2022/10/13 07:59:04;;;;;;;;;;;;;;;20.15;44.67;95848.25;6117736;19;1407;-82
2022/10/13 08:01:08;;;;;;;;;;;;;;;20.14;44.75;95836.72;6118005;19;953;-82
2022/10/13 08:03:11;;;;;;;;;;;;;;;20.14;44.86;95835.91;6118473;19;1364;-82
2022/10/13 08:05:14;;;;;;;;;;;;;;;20.15;44.46;95832.25;6116578;19;1435;-82
2022/10/13 08:07:21;;;;;;;;;;;;;;;20.15;44.82;95833.06;6101305;19;967;-82
2022/10/13 08:09:24;;;;;;;;;;;;;;;20.16;44.86;95829.38;6118609;19;1144;-80
2022/10/13 08:11:28;;;;;;;;;;;;;;;20.21;44.73;95828.81;6115716;19;1860;-81
2022/10/13 08:13:31;;;;;;;;;;;;;;;20.22;44.68;95827.78;6116905;19;1048;-80
2022/10/13 08:15:35;;;;;;;;;;;;;;;20.24;44.76;95831.91;6125001;19;942;-79
2022/10/13 08:17:38;;;;;;;;;;;;;;;20.25;44.97;95828.22;6104683;19;1429;-81
2022/10/13 08:19:42;;;;;;;;;;;;;;;20.25;44.86;95824.72;6123847;19;1100;-81
2022/10/13 08:21:45;;;;;;;;;;;;;;;20.29;45.22;95818.84;6122945;19;1160;-80
2022/10/13 08:23:51;;;;;;;;;;;;;;;19.58;44.60;95825.81;6121673;19;1488;-83
2022/10/13 08:25:55;;;;;;;;;;;;;;;19.12;44.21;95828.63;6126462;19;1124;-83
2022/10/13 08:27:58;;;;;;;;;;;;;;;18.94;44.21;95824.47;6125820;19;1377;-83
2022/10/13 08:30:01;;;;;;;;;;;;;;;18.82;44.27;95823.25;6106928;19;1847;-83
2022/10/13 08:32:05;;;;;;;;;;;;;;;18.67;44.16;95819.75;6124065;19;1093;-83
2022/10/13 08:34:09;;;;;;;;;;;;;;;18.64;44.30;95814.75;6124220;19;1093;-83
2022/10/13 08:36:12;;;;;;;;;;;;;;;18.61;44.00;95812.44;6124193;19;1044;-84
2022/10/13 08:38:15;;;;;;;;;;;;;;;18.58;44.38;95808.31;6124262;19;1306;-83
2022/10/13 08:40:22;;;;;;;;;;;;;;;18.57;44.31;95805.81;6104980;19;1432;-83
2022/10/13 08:42:26;;;;;;;;;;;;;;;18.53;44.35;95811.50;6123339;19;1124;-83
2022/10/13 08:44:36;;;;;;;;;;;;;;;18.44;44.05;95806.41;6124154;19;1088;-84
2022/10/13 08:46:43;;;;;;;;;;;;;;;18.39;44.54;95806.16;6124816;19;1093;-85
2022/10/13 08:48:47;;;;;;;;;;;;;;;18.82;44.02;95804.63;6122780;19;1500;-86
2022/10/13 08:50:52;;;;;;;;;;;;;;;19.11;44.80;95803.00;6117122;19;1845;-86
2022/10/13 08:52:57;;;;;;;;;;;;;;;19.31;44.02;95806.75;6114993;19;1064;-86
2022/10/13 08:55:00;;;;;;;;;;;;;;;19.43;44.10;95804.47;6122531;19;1529;-85
2022/10/13 08:57:06;;;;;;;;;;;;;;;19.53;44.25;95805.03;6124420;19;1025;-86
2022/10/13 08:59:15;;;;;;;;;;;;;;;19.62;44.27;95797.78;6125198;19;1085;-84
2022/10/13 09:01:22;;;;;;;;;;;;;;;19.69;44.15;95797.84;6125155;19;1072;-85
2022/10/13 09:03:26;;;;;;;;;;;;;;;19.72;44.31;95797.47;6104921;19;1297;-84
2022/10/13 09:05:38;;;;;;;;;;;;;;;19.75;44.10;95789.94;6120340;19;1467;-85
2022/10/13 09:07:42;;;;;;;;;;;;;;;19.78;44.02;95794.06;6122011;19;1465;-86
2022/10/13 09:09:46;;;;;;;;;;;;;;;19.80;44.38;95779.50;6123543;19;1522;-85
2022/10/13 09:11:50;;;;;;;;;;;;;;;19.82;44.31;95785.50;6121985;19;1843;-85
2022/10/13 09:13:59;;;;;;;;;;;;;;;19.83;44.27;95784.50;6113108;19;1471;-85
2022/10/13 09:16:02;;;;;;;;;;;;;;;19.86;44.31;95777.94;6112383;19;1464;-86
2022/10/13 09:18:10;;;;;;;;;;;;;;;19.87;44.48;95771.59;6123641;19;1082;-85
2022/10/13 09:20:20;;;;;;;;;;;;;;;19.89;44.44;95781.06;6122538;19;1234;-86
2022/10/13 09:22:25;;;;;;;;;;;;;;;19.93;44.11;95780.69;6123907;19;1101;-84
2022/10/13 09:24:29;;;;;;;;;;;;;;;19.93;44.29;95775.34;6121579;19;1547;-84
2022/10/13 09:26:32;;;;;;;;;;;;;;;19.94;44.41;95763.66;6102974;19;1380;-83
2022/10/13 09:28:35;;;;;;;;;;;;;;;19.96;44.50;95769.66;6123411;19;1459;-91
2022/10/13 09:30:42;;;;;;;;;;;;;;;19.99;44.54;95763.94;6122485;19;1846;-88
2022/10/13 09:32:46;;;;;;;;;;;;;;;19.97;44.59;95750.75;6123128;19;1398;-89
2022/10/13 09:34:50;;;;;;;;;;;;;;;19.99;44.80;95754.06;6122373;19;1554;-88
2022/10/13 09:37:01;;;;;;;;;;;;;;;20.01;44.71;95748.56;6107823;19;1561;-86
2022/10/13 09:39:10;;;;;;;;;;;;;;;20.02;44.54;95742.19;6124381;19;1060;-89
2022/10/13 09:41:21;;;;;;;;;;;;;;;20.02;44.88;95742.19;6122266;19;1555;-89
2022/10/13 09:43:29;;;;;;;;;;;;;;;20.04;44.68;95742.84;6123871;19;1415;-86
2022/10/13 09:45:33;;;;;;;;;;;;;;;20.04;45.21;95735.66;6122199;19;1263;-85
2022/10/13 09:47:39;;;;;;;;;;;;;;;20.05;45.03;95731.97;6116742;19;1388;-85
2022/10/13 09:49:44;;;;;;;;;;;;;;;20.06;44.88;95735.47;6113639;19;1045;-88
2022/10/13 09:51:48;;;;;;;;;;;;;;;20.06;44.84;95730.97;6121911;19;1841;-87
2022/10/13 09:53:51;;;;;;;;;;;;;;;20.11;44.97;95733.06;6121431;19;1157;-81
2022/10/13 09:56:09;;;;;;;;;;;;;;;20.13;44.84;95730.22;6121357;19;1154;-81
2022/10/13 09:58:16;;;;;;;;;;;;;;;20.11;44.48;95733.06;6121268;19;1141;-82
2022/10/13 10:00:21;;;;;;;;;;;;;;;20.13;44.67;95727.53;6101415;19;1524;-82
2022/10/13 10:02:30;;;;;;;;;;;;;;;20.13;44.74;95725.69;6121934;19;1068;-82
2022/10/13 10:04:40;;;;;;;;;;;;;;;20.13;44.37;95723.03;6119317;19;1526;-82
2022/10/13 10:06:45;;;;;;;;;;;;;;;20.14;44.61;95714.00;6122673;19;1092;-82
2022/10/13 10:08:54;;;;;;;;;;;;;;;20.14;44.45;95718.50;6120540;19;1470;-82
2022/10/13 10:10:58;;;;;;;;;;;;;;;20.14;44.38;95708.66;6104788;19;1844;-82
2022/10/13 10:13:02;;;;;;;;;;;;;;;20.15;44.54;95712.16;6120367;19;962;-82
2022/10/13 10:15:17;;;;;;;;;;;;;;;20.14;44.30;95705.97;6120766;19;1143;-82
2022/10/13 10:17:24;;;;;;;;;;;;;;;20.17;44.54;95707.44;6120135;19;1371;-82
2022/10/13 10:19:31;;;;;;;;;;;;;;;20.16;44.31;95703.97;6118743;19;1406;-83
2022/10/13 10:21:39;;;;;;;;;;;;;;;20.17;44.43;95696.78;6118999;19;1006;-82
2022/10/13 10:23:47;;;;;;;;;;;;;;;20.20;44.27;95696.38;6113853;19;1380;-91
2022/10/13 10:25:52;;;;;;;;;;;;;;;20.20;44.58;95685.72;6122465;19;1419;-91
2022/10/13 10:28:06;;;;;;;;;;;;;;;20.15;44.79;95680.97;6122295;19;1560;-87
2022/10/13 10:30:16;;;;;;;;;;;;;;;20.16;44.80;95679.13;6120456;19;1477;-85
2022/10/13 10:32:40;;;;;;;;;;;;;;;20.17;44.69;95691.44;6120804;19;1865;-87
2022/10/13 10:34:47;;;;;;;;;;;;;;;20.17;45.11;95683.44;6101805;19;1489;-86
2022/10/13 10:36:55;;;;;;;;;;;;;;;20.17;45.27;95680.75;6119538;19;1407;-87
2022/10/13 10:39:04;;;;;;;;;;;;;;;20.17;44.99;95670.91;6121330;19;1157;-88
2022/10/13 10:41:13;;;;;;;;;;;;;;;20.17;45.33;95670.09;6120365;19;1381;-87
2022/10/13 10:43:32;;;;;;;;;;;;;;;20.15;45.51;95662.28;6121120;19;1510;-87
2022/10/13 10:45:38;;;;;;;;;;;;;;;20.18;45.31;95666.44;6104940;19;1432;-87
2022/10/13 10:47:44;;;;;;;;;;;;;;;20.18;45.63;95664.56;6121828;19;1109;-84
2022/10/13 10:49:48;;;;;;;;;;;;;;;20.19;45.26;95658.22;6120041;19;1383;-87
2022/10/13 10:51:54;;;;;;;;;;;;;;;20.18;45.72;95651.22;6120174;19;1842;-88
2022/10/13 10:54:03;;;;;;;;;;;;;;;20.19;45.31;95654.72;6120573;19;1495;-89
2022/10/13 10:56:10;;;;;;;;;;;;;;;20.20;45.58;95649.19;6113231;19;1087;-88
2022/10/13 10:58:22;;;;;;;;;;;;;;;20.21;45.67;95642.84;6112757;19;1065;-87
2022/10/13 11:00:25;;;;;;;;;;;;;;;20.21;45.45;95640.16;6121579;19;918;-87